METAR Data
IDs: Format: Raw Decoded Include TAF

Data at: 0158 UTC 16 Jan 2019

KPSN 160155Z AUTO 15003KT 10SM OVC020 08/05 A3031 RMK AO2 T00880050
KPSN 160135Z AUTO 00000KT 10SM BKN022 BKN027 OVC034 08/05 A3030 RMK AO2 T00880050
KPSN 160115Z AUTO 00000KT 10SM SCT024 BKN029 OVC036 08/05 A3030 RMK AO2 T00880048
KPSN 160055Z AUTO 00000KT 10SM OVC026 08/04 A3030 RMK AO2 T00880046
KPSN 160035Z AUTO 00000KT 10SM SCT025 BKN031 OVC037 08/04 A3030 RMK AO2 T00900045
KPSN 160015Z AUTO 00000KT 10SM BKN033 OVC039 08/04 A3029 RMK AO2 T00890045
KPSN 152355Z AUTO 00000KT 10SM OVC038 08/04 A3028 RMK AO2 T00900042
KPSN 152335Z AUTO 00000KT 10SM OVC038 08/03 A3028 RMK AO2 T00900040
KPSN 152315Z AUTO 14003KT 10SM OVC040 08/03 A3028 RMK AO2 T00910040
KPSN 152255Z AUTO 00000KT 10SM OVC040 09/03 A3028 RMK AO2 T00920040
KPSN 152235Z AUTO 14004KT 10SM OVC042 09/03 A3028 RMK AO2 T00920038
KPSN 152215Z AUTO 18005KT 10SM OVC044 09/04 A3029 RMK AO2 T00930041
KPSN 152155Z AUTO 17004KT 10SM SCT042 OVC048 09/03 A3030 RMK AO2 T00960040
KPSN 152135Z AUTO 15003KT 10SM SCT043 OVC048 10/03 A3030 RMK AO2 T00970039
KPSN 152115Z AUTO 18003KT 10SM OVC046 10/03 A3030 RMK AO2 T00990040
KPSN 152055Z AUTO 00000KT 10SM BKN050 OVC060 09/03 A3030 RMK AO2 T00950037
KPSN 152035Z AUTO 00000KT 10SM OVC060 09/03 A3031 RMK AO2 T00950036
KPSN 152015Z AUTO 14003KT 10SM SCT050 OVC060 09/03 A3031 RMK AO2 T00930037
KPSN 151955Z AUTO 07003KT 10SM BKN050 OVC060 08/03 A3031 RMK AO2 T00900035
KPSN 151935Z AUTO 11003KT 10SM OVC060 08/03 A3032 RMK AO2 T00870034
KPSN 151915Z AUTO 16003KT 10SM OVC060 08/03 A3033 RMK AO2 T00860035
KPSN 151855Z AUTO 00000KT 10SM OVC060 08/03 A3035 RMK AO2 T00840036
KPSN 151835Z AUTO 19003KT 10SM OVC060 08/03 A3036 RMK AO2 T00820034
KPSN 151815Z AUTO 18004KT 10SM SCT060 07/03 A3037 RMK AO2 T00790034
KPSN 151755Z AUTO 16004KT 10SM BKN060 07/03 A3038 RMK AO2 T00730034
KPSN 151735Z AUTO 22003KT 10SM OVC060 06/03 A3040 RMK AO2 T00690033
KPSN 151715Z AUTO 21004KT 10SM OVC050 06/03 A3041 RMK AO2 T00640032
KPSN 151655Z AUTO 16003KT 10SM OVC050 06/02 A3042 RMK AO2 T00620030
KPSN 151635Z AUTO 00000KT 10SM OVC050 06/02 A3041 RMK AO2 T00580028
KPSN 151615Z AUTO 00000KT 10SM OVC050 05/02 A3040 RMK AO2 T00530026
KPSN 151555Z AUTO 00000KT 10SM OVC060 05/02 A3041 RMK AO2 T00500026
KPSN 151535Z AUTO 10003KT 7SM OVC060 04/02 A3040 RMK AO2 T00450025
KPSN 151515Z AUTO 14005KT 7SM OVC060 04/02 A3039 RMK AO2 T00410023
KPSN 151455Z AUTO 11004KT 7SM OVC060 03/02 A3038 RMK AO2 T00380023
KPSN 151435Z AUTO 11005KT 7SM OVC060 03/02 A3038 RMK AO2 T00320020
KPSN 151415Z AUTO 11003KT 7SM OVC060 02/01 A3039 RMK AO2 T00300018
KPSN 151355Z AUTO 00000KT 5SM BR OVC060 02/01 A3038 RMK AO2 T00250018
KPSN 151335Z AUTO 00000KT 4SM BR OVC060 02/01 A3038 RMK AO2 T00200015
KPSN 151315Z AUTO 00000KT 5SM BR OVC060 01/01 A3039 RMK AO2 T00150012
KPSN 151255Z AUTO 00000KT 4SM BR OVC060 01/00 A3038 RMK AO2 T00100007
KPSN 151235Z AUTO 00000KT 5SM BR BKN060 01/00 A3037 RMK AO2 T00090005
KPSN 151215Z AUTO 17003KT 5SM BR CLR 01/00 A3038 RMK AO2 T00100004
KPSN 151155Z AUTO 00000KT 7SM CLR 01/00 A3036 RMK AO2 T00160007
KPSN 151135Z AUTO 11003KT 7SM CLR 01/00 A3035 RMK AO2 T00170007
KPSN 151115Z AUTO 00000KT 7SM SCT060 01/00 A3035 RMK AO2 T00190007
KPSN 151055Z AUTO 10003KT 10SM OVC060 02/01 A3036 RMK AO2 T00220011
KPSN 151035Z AUTO 00000KT 10SM OVC060 02/01 A3037 RMK AO2 T00220010
KPSN 151015Z AUTO 10003KT 10SM BKN060 02/01 A3037 RMK AO2 T00230010
KPSN 150955Z AUTO 10003KT 10SM OVC060 02/01 A3037 RMK AO2 T00250011
KPSN 150935Z AUTO 00000KT 10SM OVC060 02/01 A3038 RMK AO2 T00250014
KPSN 150915Z AUTO 00000KT 10SM OVC060 02/01 A3038 RMK AO2 T00200010
KPSN 150855Z AUTO 00000KT 10SM BKN060 01/00 A3039 RMK AO2 T00160006
KPSN 150835Z AUTO 00000KT 7SM CLR 01/00 A3039 RMK AO2 T00150005
KPSN 150815Z AUTO 00000KT 10SM CLR 01/00 A3039 RMK AO2 T00170006
KPSN 150755Z AUTO 00000KT 10SM CLR 01/00 A3039 RMK AO2 T00180006
KPSN 150735Z AUTO 07003KT 10SM CLR 01/00 A3038 RMK AO2 T00180006
KPSN 150715Z AUTO 00000KT 10SM CLR 01/00 A3038 RMK AO2 T00180006
KPSN 150655Z AUTO 00000KT 10SM CLR 02/00 A3038 RMK AO2 T00200007
KPSN 150635Z AUTO 00000KT 10SM CLR 01/00 A3038 RMK AO2 T00190006
KPSN 150615Z AUTO 00000KT 10SM CLR 01/00 A3038 RMK AO2 T00180006
KPSN 150555Z AUTO 00000KT 10SM CLR 02/00 A3039 RMK AO2 T00210007
KPSN 150535Z AUTO 00000KT 10SM CLR 02/01 A3040 RMK AO2 T00220008
KPSN 150515Z AUTO 06003KT 10SM CLR 02/00 A3041 RMK AO2 T00230008
KPSN 150455Z AUTO 00000KT 10SM CLR 02/01 A3042 RMK AO2 T00260010
KPSN 150435Z AUTO 00000KT 10SM CLR 02/01 A3042 RMK AO2 T00260010
KPSN 150415Z AUTO 00000KT 10SM CLR 02/01 A3042 RMK AO2 T00220009
KPSN 150355Z AUTO 00000KT 10SM CLR 02/01 A3042 RMK AO2 T00250011
KPSN 150335Z AUTO 00000KT 10SM CLR 02/01 A3041 RMK AO2 T00270012
KPSN 150315Z AUTO 00000KT 10SM CLR 02/01 A3041 RMK AO2 T00280012
KPSN 150255Z AUTO 03003KT 10SM CLR 03/01 A3041 RMK AO2 T00330018
KPSN 150235Z AUTO 00000KT 10SM CLR 03/01 A3041 RMK AO2 T00320016
KPSN 150215Z AUTO 00000KT 10SM CLR 03/01 A3041 RMK AO2 T00330016
KPSN 150155Z AUTO 00000KT 10SM CLR 03/01 A3041 RMK AO2 T00360018
KPSN 150135Z AUTO 00000KT 10SM CLR 04/01 A3041 RMK AO2 T00420017
KPSN 150115Z AUTO 00000KT 10SM CLR 05/01 A3040 RMK AO2 T00500016
KPSN 150055Z AUTO 05003KT 10SM CLR 05/01 A3040 RMK AO2 T00510017
KPSN 150035Z AUTO 05003KT 10SM CLR 05/01 A3040 RMK AO2 T00570019
KPSN 150015Z AUTO 03003KT 10SM CLR 05/01 A3039 RMK AO2 T00560018
KPSN 142355Z AUTO 00000KT 10SM CLR 06/01 A3040 RMK AO2 T00660017
KPSN 142335Z AUTO 31003KT 10SM CLR 07/01 A3039 RMK AO2 T00730018
KPSN 142315Z AUTO 29004KT 10SM CLR 08/01 A3039 RMK AO2 T00810015
KPSN 142255Z AUTO 00000KT 10SM CLR 08/01 A3039 RMK AO2 T00850015
KPSN 142235Z AUTO 00000KT 10SM CLR 08/01 A3038 RMK AO2 T00880016
KPSN 142215Z AUTO 00000KT 10SM CLR 08/01 A3038 RMK AO2 T00880015
KPSN 142155Z AUTO 00000KT 10SM CLR 08/01 A3039 RMK AO2 T00880016
KPSN 142135Z AUTO 26003KT 10SM CLR 08/01 A3039 RMK AO2 T00860016
KPSN 142115Z AUTO 32005KT 10SM CLR 08/01 A3039 RMK AO2 T00850016
KPSN 142055Z AUTO 35003KT 10SM CLR 08/01 A3040 RMK AO2 T00830015
KPSN 142035Z AUTO 34004KT 10SM CLR 08/01 A3041 RMK AO2 T00820015
KPSN 142015Z AUTO 02003KT 10SM CLR 07/01 A3041 RMK AO2 T00770012
KPSN 141955Z AUTO 35003KT 10SM CLR 07/01 A3042 RMK AO2 T00760015
KPSN 141935Z AUTO 04004KT 10SM CLR 07/01 A3042 RMK AO2 T00710012
KPSN 141915Z AUTO 00000KT 10SM SCT020 06/01 A3043 RMK AO2 T00640011
KPSN 141855Z AUTO 00000KT 10SM BKN020 06/01 A3045 RMK AO2 T00640012
KPSN 141835Z AUTO 32003KT 10SM BKN018 06/01 A3046 RMK AO2 T00610009
KPSN 141815Z AUTO 34004KT 10SM BKN018 05/01 A3048 RMK AO2 T00510008
KPSN 141755Z AUTO 31005KT 10SM OVC018 05/01 A3049 RMK AO2 T00510009
KPSN 141735Z AUTO 33005KT 10SM OVC016 05/01 A3050 RMK AO2 T00480008
KPSN 141715Z AUTO 32003KT 10SM OVC016 04/01 A3052 RMK AO2 T00450008
KPSN 141655Z AUTO 01003KT 10SM OVC016 03/00 A3053 RMK AO2 T00410007
KPSN 141635Z AUTO 33006KT 10SM OVC016 03/00 A3053 RMK AO2 T00400006
KPSN 141615Z AUTO 00000KT 10SM OVC016 03/00 A3053 RMK AO2 T00370005
KPSN 141555Z AUTO 00000KT 10SM OVC016 03/00 A3052 RMK AO2 T00370005
KPSN 141535Z AUTO 34004KT 10SM OVC016 03/00 A3051 RMK AO2 T00360006
KPSN 141515Z AUTO 32005KT 10SM OVC016 03/00 A3050 RMK AO2 T00330005
KPSN 141455Z AUTO 34005KT 10SM OVC016 03/00 A3050 RMK AO2 T00320004
KPSN 141435Z AUTO 03006KT 10SM OVC016 02/00 A3049 RMK AO2 T00300003
KPSN 141415Z AUTO 01006KT 10SM OVC016 02/00 A3049 RMK AO2 T00300002